Marienville, Pennsylvania
Current Conditions -  °F | °C
As of 10:03 PM on Thursday 27 Nov 2014 (Local Time) from KDUJ Reporting Station
Light Snow Light Snow  
Wind Chill: 14°   Ceiling: 1100
Heat Index: 26°   Visibility: 3mi
Dew Point: 23°   Wind: 14mph
Humidity: 88%   Direction: 250°WSW
Pressure: 30.09"   Gusts: NA
Location:  41.47°N, 79.12°W
Report Text: KDUJ 280303Z AUTO 25012KT 3SM -SN BR OVC011 M03/M05 A3009 RMK AO2 P0000 T10331050
Loading
Personal Weather Stations






























Interactive Weather Map New forecast layout! Learn more

10-Day Weather Forecast

Advertisements
Track Severe Weather on mobile